Grider Field
KPBF : now visible

Airfield :











YOU CAN JOIN US ON...

 
LOGIN :

Register | Disclaimer

   EN    FR    IT 

 









Legend :    VFR   Marginal VFR   IFR   Intensive IFR   Very Intensive IFR
Visi :
Ceiling :
>= 8 km
>= 3000ft
5 to 8 km
1000 to 3000 ft
1500m to 5 km
500 to 1000 ft
800 to 1500m
200 to 500 ft
< 800m
< 200 ft
Symbols :   Thunderstorms  Fog  Heavy snow  Heavy precipitations  Wind > 20 kt






- Airport Elevation : 206 ft


KPBF - Grider Field

CURRENT METAR :
  • 291753Z AUTO 01008KT 10SM FEW035 26/17 A3007 RMK AO2 SLP182 T02560167 10261 20183 50005

EXPIRED METARs :
  • 291712Z AUTO 02009KT 10SM BKN030 OVC038 24/17 A3008 RMK AO2 T02440167
  • 291653Z AUTO 34008KT 10SM BKN028 BKN034 24/17 A3008 RMK AO2 SLP183 T02390167
  • 291636Z AUTO 35010KT 10SM BKN028 23/17 A3008 RMK AO2 T02330167
  • 291553Z AUTO 35007KT 10SM FEW020 23/17 A3007 RMK AO2 SLP180 T02330172
  • 291453Z AUTO 31013G22KT 10SM CLR 23/17 A3006 RMK AO2 SLP176 T02280172 50002

TAF KPBF
Valid from the 29 at 18:00 until the 30 at 18:00 UTC


291737Z 2918/3018 01009KT P6SM BKN035
FM292000 36010G16KT P6SM SCT040
FM300000 36004KT P6SM SKC
KZME FIR / North America



MET'MAP, your aeronautical weather chart ! - Copyright ORBIFLY December 2007 - Disclaimer

ORBIFLY MET'MAP TEAM :

Programming & Development : Alexandra Zaïnal
Concept & original design : Baudouin d'Aumeries
Assistance for programming : Marc-Olivier Méhu
Technical & hardware support : Manuel Goepfert

Contact : metmap@orbifly.com




SOURCES & CREDITS :

   NOAA       Earth
Advisory